Time;durP1;ratioP1;P1;durP2;ratioP2;P2;SDS_P1;SDS_P2;PMS_P1;PMS_P2;Temp;Humidity;BMP_temperature;BMP_pressure;BME280_temperature;BME280_humidity;BME280_pressure;Samples;Min_cycle;Max_cycle;Signal;HPM_P1;HPM_P2
2023/06/29 00:00:30;;;;;;;2.60;2.40;;;;;;;18.28;85.02;98648.50;4147506;28;20295;-52
2023/06/29 00:02:31;;;;;;;2.22;1.92;;;;;;;18.27;85.37;98652.41;4134107;28;20634;-53
2023/06/29 00:04:34;;;;;;;5.15;2.13;;;;;;;18.12;85.75;98642.31;4131518;28;20571;-52
2023/06/29 00:06:37;;;;;;;1.45;1.35;;;;;;;18.26;85.37;98639.69;4133401;28;20324;-52
2023/06/29 00:08:40;;;;;;;1.88;1.63;;;;;;;18.33;84.71;98642.94;4131248;28;20209;-52
2023/06/29 00:10:44;;;;;;;3.72;1.80;;;;;;;18.25;84.61;98638.03;4161810;28;20307;-52
2023/06/29 00:12:46;;;;;;;1.90;1.70;;;;;;;18.27;84.49;98641.31;4134654;28;20615;-54
2023/06/29 00:14:48;;;;;;;1.92;1.50;;;;;;;18.24;84.20;98634.41;4136529;28;20206;-52
2023/06/29 00:16:52;;;;;;;3.20;1.88;;;;;;;18.24;84.10;98625.31;4142872;28;20225;-52
2023/06/29 00:18:55;;;;;;;2.38;1.95;;;;;;;18.19;83.98;98626.16;4132811;28;20324;-52
2023/06/29 00:20:57;;;;;;;2.28;2.08;;;;;;;18.22;84.08;98627.53;4134300;28;20856;-53
2023/06/29 00:22:59;;;;;;;1.90;1.73;;;;;;;18.16;84.79;98631.47;4123816;28;20210;-52
2023/06/29 00:25:01;;;;;;;2.45;2.00;;;;;;;18.11;84.77;98626.03;4169609;28;20295;-52
2023/06/29 00:27:03;;;;;;;2.40;1.40;;;;;;;18.17;84.71;98624.81;4136878;28;20209;-52
2023/06/29 00:29:05;;;;;;;2.03;1.75;;;;;;;18.09;84.55;98619.94;4141518;28;20243;-52
2023/06/29 00:31:07;;;;;;;2.45;1.92;;;;;;;18.06;84.50;98617.75;4141434;28;20220;-52
2023/06/29 00:33:09;;;;;;;2.67;1.90;;;;;;;18.02;84.58;98620.31;4168074;28;20714;-53
2023/06/29 00:35:12;;;;;;;2.55;2.15;;;;;;;18.00;84.64;98630.88;4134053;28;20210;-52
2023/06/29 00:37:13;;;;;;;2.03;1.90;;;;;;;17.97;85.02;98616.75;4141226;28;20228;-52
2023/06/29 00:39:15;;;;;;;2.50;1.75;;;;;;;17.92;85.13;98619.59;4140483;28;20255;-52
2023/06/29 00:41:18;;;;;;;2.53;2.33;;;;;;;17.83;85.37;98622.19;4133306;28;20237;-52
2023/06/29 00:43:20;;;;;;;2.80;1.65;;;;;;;17.78;85.36;98616.69;4151947;28;20289;-52
2023/06/29 00:45:22;;;;;;;3.55;1.95;;;;;;;17.75;85.76;98616.47;4135642;28;20299;-52
2023/06/29 00:47:24;;;;;;;3.67;2.38;;;;;;;17.80;85.76;98620.00;4142411;28;20201;-53
2023/06/29 00:49:26;;;;;;;2.35;1.90;;;;;;;17.78;85.80;98616.69;4145143;28;20225;-52
2023/06/29 00:51:29;;;;;;;2.67;2.08;;;;;;;17.80;85.97;98624.72;4169849;28;20295;-52
2023/06/29 00:53:31;;;;;;;2.00;1.80;;;;;;;17.82;86.25;98619.69;4151774;28;20220;-52
2023/06/29 00:55:33;;;;;;;1.52;1.23;;;;;;;17.81;86.73;98621.66;4138524;28;20280;-53
2023/06/29 00:57:35;;;;;;;2.55;2.35;;;;;;;17.83;87.10;98618.56;4134076;28;20258;-52
2023/06/29 00:59:37;;;;;;;1.90;1.80;;;;;;;17.81;87.21;98621.66;4148469;28;20774;-53
2023/06/29 01:01:39;;;;;;;2.50;1.83;;;;;;;17.73;87.54;98618.72;4137082;28;21108;-53
2023/06/29 01:03:42;;;;;;;2.63;1.60;;;;;;;17.66;87.21;98615.47;4152098;28;20251;-52
2023/06/29 01:05:45;;;;;;;2.85;1.88;;;;;;;17.63;87.10;98613.25;4136174;28;20226;-53
2023/06/29 01:08:07;;;;;;;2.80;2.13;;;;;;;17.63;87.50;98607.72;4149843;28;20209;-53
2023/06/29 01:10:11;;;;;;;3.13;1.77;;;;;;;17.58;87.27;98610.56;4149926;28;20742;-52
2023/06/29 01:12:13;;;;;;;2.20;1.98;;;;;;;17.54;87.30;98612.25;4145033;28;20352;-52
2023/06/29 01:14:16;;;;;;;2.88;2.25;;;;;;;17.54;87.61;98610.34;4140105;28;20603;-52
2023/06/29 01:16:18;;;;;;;1.95;1.75;;;;;;;17.45;87.99;98614.03;4140737;28;20289;-52
2023/06/29 01:18:21;;;;;;;4.03;1.77;;;;;;;17.38;88.09;98606.06;4151176;28;20247;-52
2023/06/29 01:20:25;;;;;;;2.80;1.90;;;;;;;17.34;88.16;98606.91;4167671;28;20230;-52
2023/06/29 01:22:31;;;;;;;2.78;2.03;;;;;;;17.36;88.01;98607.44;4164285;28;20647;-52
2023/06/29 01:24:40;;;;;;;2.50;1.65;;;;;;;17.25;87.93;98600.34;4135236;28;20948;-52
2023/06/29 01:26:42;;;;;;;3.83;1.75;;;;;;;17.26;88.51;98604.78;4141465;28;20239;-53
2023/06/29 01:28:46;;;;;;;2.90;1.77;;;;;;;17.25;88.46;98603.94;4139466;28;20239;-52
2023/06/29 01:30:51;;;;;;;3.05;1.88;;;;;;;17.28;88.97;98608.06;4151348;28;20375;-53
2023/06/29 01:32:53;;;;;;;1.63;1.52;;;;;;;17.33;89.21;98602.47;4126161;28;20738;-53
2023/06/29 01:34:54;;;;;;;2.10;1.70;;;;;;;17.27;89.08;98603.66;4149600;28;20298;-52
2023/06/29 01:37:06;;;;;;;2.20;2.08;;;;;;;17.24;89.18;98601.44;4150327;28;21238;-52
2023/06/29 01:39:14;;;;;;;3.33;2.47;;;;;;;17.20;89.37;98594.88;4149252;28;20209;-52
2023/06/29 01:41:16;;;;;;;2.17;1.85;;;;;;;17.16;89.92;98593.78;4148312;28;20246;-52
2023/06/29 01:43:19;;;;;;;2.53;2.00;;;;;;;17.06;90.40;98596.66;4135260;28;20210;-53
2023/06/29 01:45:21;;;;;;;3.33;1.65;;;;;;;17.00;90.79;98598.63;4167373;28;20209;-53
2023/06/29 01:47:24;;;;;;;2.55;1.88;;;;;;;16.95;91.34;98595.06;4166478;28;20216;-52
2023/06/29 01:49:25;;;;;;;2.75;2.35;;;;;;;16.97;91.07;98594.78;4166421;28;20235;-53
2023/06/29 01:51:27;;;;;;;2.45;1.90;;;;;;;17.05;90.65;98597.78;4138992;28;20209;-53
2023/06/29 01:53:29;;;;;;;1.75;1.60;;;;;;;17.00;90.34;98586.75;4141140;28;20217;-52
2023/06/29 01:55:33;;;;;;;2.47;2.28;;;;;;;16.98;90.24;98589.78;4134730;28;20247;-53
2023/06/29 01:57:35;;;;;;;1.98;1.80;;;;;;;16.98;90.35;98594.50;4139507;28;20219;-54
2023/06/29 01:59:40;;;;;;;3.28;1.95;;;;;;;16.98;90.34;98589.00;4138740;28;20213;-53
2023/06/29 02:01:42;;;;;;;2.25;2.05;;;;;;;16.98;90.21;98589.00;4141695;28;20208;-53
2023/06/29 02:03:43;;;;;;;2.25;2.05;;;;;;;16.95;90.06;98592.31;4134380;28;20693;-53
2023/06/29 02:05:45;;;;;;;4.00;2.13;;;;;;;16.93;90.23;98591.78;4137146;28;20229;-52
2023/06/29 02:07:51;;;;;;;2.47;2.22;;;;;;;16.93;89.96;98580.72;4124278;28;20316;-52
2023/06/29 02:09:52;;;;;;;2.40;2.05;;;;;;;16.98;90.10;98583.47;4137009;28;20233;-53
2023/06/29 02:11:54;;;;;;;2.55;2.35;;;;;;;16.94;90.09;98587.91;4135997;28;20217;-52
2023/06/29 02:13:56;;;;;;;2.38;1.92;;;;;;;16.94;89.59;98576.84;4138058;28;20821;-53
2023/06/29 02:15:58;;;;;;;3.65;2.72;;;;;;;16.86;89.78;98584.94;4138506;28;20769;-54
2023/06/29 02:17:59;;;;;;;2.38;2.17;;;;;;;16.86;89.68;98580.22;4147381;28;20262;-53
2023/06/29 02:20:01;;;;;;;2.92;2.30;;;;;;;16.86;89.90;98579.41;4166356;28;20300;-52
2023/06/29 02:22:03;;;;;;;4.63;2.28;;;;;;;16.83;89.92;98580.78;4134776;28;20260;-53
2023/06/29 02:24:06;;;;;;;2.42;2.00;;;;;;;16.83;90.01;98580.78;4132972;28;20244;-52
2023/06/29 02:26:08;;;;;;;2.22;2.03;;;;;;;16.81;90.00;98588.56;4141875;28;20229;-52
2023/06/29 02:28:09;;;;;;;1.80;1.70;;;;;;;16.80;89.87;98586.91;4138458;28;20261;-52
2023/06/29 02:30:12;;;;;;;2.58;2.10;;;;;;;16.75;90.02;98584.19;4135221;28;20699;-53
2023/06/29 02:32:13;;;;;;;3.35;2.30;;;;;;;16.68;90.58;98583.69;4149960;28;20209;-52
2023/06/29 02:34:15;;;;;;;2.45;2.15;;;;;;;16.69;91.38;98574.28;4167016;28;20657;-53
2023/06/29 02:36:20;;;;;;;2.97;2.67;;;;;;;16.32;94.33;98573.97;4118105;28;20277;-53
2023/06/29 02:38:22;;;;;;;2.13;1.90;;;;;;;16.39;93.22;98580.03;4139932;28;20213;-52
2023/06/29 02:40:24;;;;;;;3.13;2.22;;;;;;;16.38;93.44;98578.38;4168857;28;20208;-52
2023/06/29 02:42:26;;;;;;;2.83;2.13;;;;;;;16.43;92.78;98570.03;4137222;28;20210;-52
2023/06/29 02:44:28;;;;;;;2.35;2.15;;;;;;;16.45;92.53;98581.66;4141121;28;20722;-52
2023/06/29 02:46:30;;;;;;;1.98;1.88;;;;;;;16.55;92.22;98578.00;4150956;28;20226;-52
2023/06/29 02:48:32;;;;;;;2.33;2.13;;;;;;;16.59;91.86;98577.13;4147140;28;20296;-52
2023/06/29 02:50:33;;;;;;;2.67;2.47;;;;;;;16.62;91.90;98581.25;4148556;28;20224;-52
2023/06/29 02:52:35;;;;;;;2.30;2.10;;;;;;;16.40;92.46;98573.38;4149384;28;20613;-53
2023/06/29 02:54:37;;;;;;;2.63;2.42;;;;;;;16.41;92.46;98572.28;4140239;28;20723;-52
2023/06/29 02:56:39;;;;;;;3.53;2.00;;;;;;;16.45;92.42;98573.34;4134734;28;20229;-52
2023/06/29 02:58:40;;;;;;;2.33;2.13;;;;;;;16.45;92.16;98584.41;4149409;28;20209;-53
2023/06/29 03:00:42;;;;;;;3.08;2.75;;;;;;;16.46;92.27;98574.16;4141311;28;20782;-54
2023/06/29 03:02:44;;;;;;;2.38;2.15;;;;;;;16.49;91.96;98574.41;4135336;28;20213;-52
2023/06/29 03:04:46;;;;;;;2.85;2.53;;;;;;;16.52;92.04;98567.50;4135430;28;20245;-52
2023/06/29 03:06:48;;;;;;;2.70;2.20;;;;;;;16.57;92.06;98564.72;4128310;28;20233;-52
2023/06/29 03:08:50;;;;;;;2.38;2.17;;;;;;;16.50;92.29;98553.97;4144715;28;20209;-52
2023/06/29 03:10:51;;;;;;;3.55;2.28;;;;;;;16.45;92.26;98556.78;4138016;28;20226;-53
2023/06/29 03:12:53;;;;;;;3.47;2.55;;;;;;;16.46;92.23;98558.44;4119407;28;20325;-52
2023/06/29 03:14:55;;;;;;;3.38;2.90;;;;;;;16.39;92.58;98563.44;4130419;28;20280;-52
2023/06/29 03:16:57;;;;;;;2.90;2.67;;;;;;;16.50;92.71;98565.00;4137742;28;20225;-53
2023/06/29 03:18:58;;;;;;;3.00;2.30;;;;;;;16.47;93.01;98565.59;4138048;28;20220;-53
2023/06/29 03:21:01;;;;;;;2.70;2.38;;;;;;;16.43;93.46;98558.19;4134262;28;20204;-53
2023/06/29 03:23:17;;;;;;;2.15;1.95;;;;;;;16.41;93.40;98555.69;4137535;28;20213;-53
2023/06/29 03:25:19;;;;;;;3.15;2.40;;;;;;;16.33;94.26;98559.03;4134063;28;20202;-52
2023/06/29 03:27:21;;;;;;;2.90;2.10;;;;;;;16.28;94.57;98555.47;4133753;28;20217;-52
2023/06/29 03:29:23;;;;;;;2.78;2.53;;;;;;;16.25;94.35;98556.88;4167299;28;20592;-53
2023/06/29 03:31:25;;;;;;;2.65;2.40;;;;;;;16.26;94.23;98553.00;4138264;28;20229;-53
2023/06/29 03:33:26;;;;;;;2.78;2.30;;;;;;;16.29;94.17;98541.38;4136303;28;20202;-52
2023/06/29 03:35:28;;;;;;;2.88;2.67;;;;;;;16.29;93.95;98538.59;4130546;28;20232;-53
2023/06/29 03:37:30;;;;;;;3.15;2.20;;;;;;;16.35;93.94;98544.94;4148272;28;20224;-52
2023/06/29 03:39:32;;;;;;;2.60;2.22;;;;;;;16.37;94.02;98549.03;4121369;28;20214;-52
2023/06/29 03:41:34;;;;;;;3.10;2.85;;;;;;;16.40;94.10;98548.53;4163787;28;20258;-53
2023/06/29 03:43:41;;;;;;;3.40;2.22;;;;;;;16.37;94.19;98551.00;4135546;28;22034;-53
2023/06/29 03:45:56;;;;;;;3.25;1.95;;;;;;;16.34;94.18;98554.31;4130900;28;20228;-53
2023/06/29 03:47:58;;;;;;;3.53;2.30;;;;;;;16.36;94.08;98555.69;4152212;28;20796;-53
2023/06/29 03:50:00;;;;;;;3.55;2.35;;;;;;;16.40;93.99;98547.69;4135369;28;20243;-52
2023/06/29 03:52:02;;;;;;;3.95;1.98;;;;;;;16.39;93.98;98552.41;4136408;28;20642;-52
2023/06/29 03:54:04;;;;;;;2.45;2.05;;;;;;;16.41;94.17;98543.81;4141865;28;20263;-52
2023/06/29 03:56:06;;;;;;;2.45;2.15;;;;;;;16.40;94.33;98553.22;4139440;28;20852;-52
2023/06/29 03:58:08;;;;;;;2.53;1.98;;;;;;;16.41;94.59;98550.16;4139423;28;20205;-52
2023/06/29 04:00:10;;;;;;;3.33;2.20;;;;;;;16.40;94.69;98559.56;4137317;28;20263;-53
2023/06/29 04:02:11;;;;;;;2.67;2.20;;;;;;;16.36;94.63;98549.34;4147366;28;20247;-53
2023/06/29 04:04:13;;;;;;;2.92;2.13;;;;;;;16.35;94.91;98545.75;4169820;28;20251;-53
2023/06/29 04:06:15;;;;;;;3.28;2.40;;;;;;;16.34;94.96;98544.09;4138451;28;20237;-52
2023/06/29 04:08:17;;;;;;;2.17;2.00;;;;;;;16.37;94.92;98542.72;4140183;28;20541;-52
2023/06/29 04:10:19;;;;;;;2.67;2.42;;;;;;;16.41;95.05;98544.66;4142499;28;20217;-52
2023/06/29 04:12:20;;;;;;;4.28;2.70;;;;;;;16.42;95.22;98546.28;4127112;28;20268;-52
2023/06/29 04:14:22;;;;;;;2.35;2.17;;;;;;;16.37;94.68;98542.72;4168106;28;20217;-52
2023/06/29 04:16:24;;;;;;;3.40;2.17;;;;;;;16.42;94.89;98543.53;4139518;28;20233;-53
2023/06/29 04:18:26;;;;;;;3.33;2.50;;;;;;;16.39;95.36;98538.59;4138977;28;20220;-52
2023/06/29 04:20:28;;;;;;;2.42;2.22;;;;;;;15.98;97.47;98533.56;4155777;28;20252;-52
2023/06/29 04:22:30;;;;;;;2.05;1.95;;;;;;;16.18;96.57;98528.75;4153847;28;20682;-52
2023/06/29 04:24:32;;;;;;;4.30;2.45;;;;;;;15.99;97.54;98524.16;4144856;28;20941;-53
2023/06/29 04:26:35;;;;;;;2.63;2.03;;;;;;;16.00;97.13;98521.13;4170038;28;20235;-52
2023/06/29 04:28:44;;;;;;;2.38;2.00;;;;;;;16.03;96.81;98533.53;4138128;28;20224;-52
2023/06/29 04:30:45;;;;;;;3.58;2.00;;;;;;;16.06;96.40;98531.03;4137781;28;20735;-53
2023/06/29 04:32:47;;;;;;;3.95;2.60;;;;;;;16.20;96.07;98533.97;4136261;28;20206;-52
2023/06/29 04:34:49;;;;;;;3.08;2.20;;;;;;;16.22;95.79;98529.00;4154244;28;20224;-52
2023/06/29 04:36:56;;;;;;;3.03;2.20;;;;;;;16.27;95.57;98538.09;4137678;28;20246;-53
2023/06/29 04:38:58;;;;;;;2.83;1.98;;;;;;;16.27;95.59;98532.56;4152445;28;20283;-52
2023/06/29 04:41:06;;;;;;;3.20;2.47;;;;;;;16.27;95.73;98526.19;4153035;28;20256;-52
2023/06/29 04:43:08;;;;;;;4.10;2.53;;;;;;;16.38;95.72;98523.13;4150477;28;21346;-53
2023/06/29 04:45:12;;;;;;;4.03;2.83;;;;;;;16.34;95.51;98533.06;4135303;28;20217;-53
2023/06/29 04:47:14;;;;;;;3.05;2.75;;;;;;;16.40;95.59;98531.94;4141567;28;20224;-52
2023/06/29 04:49:15;;;;;;;3.53;2.70;;;;;;;16.43;95.22;98541.59;4154840;28;20247;-52
2023/06/29 04:51:18;;;;;;;3.00;2.72;;;;;;;16.43;95.50;98531.38;4164678;28;20639;-52
2023/06/29 04:53:20;;;;;;;3.13;2.53;;;;;;;16.46;95.48;98530.81;4150644;28;20772;-53
2023/06/29 04:55:22;;;;;;;3.63;2.55;;;;;;;16.54;95.29;98532.94;4150697;28;21945;-53
2023/06/29 04:57:24;;;;;;;3.65;2.42;;;;;;;16.56;95.04;98536.25;4133608;28;20213;-52
2023/06/29 04:59:29;;;;;;;5.50;2.83;;;;;;;16.64;94.82;98532.84;4148240;28;21071;-54
2023/06/29 05:01:31;;;;;;;2.30;2.10;;;;;;;16.40;96.40;98531.13;4137731;28;20204;-52
2023/06/29 05:03:33;;;;;;;2.90;1.92;;;;;;;16.55;95.64;98531.81;4133770;28;20244;-52
2023/06/29 05:05:35;;;;;;;3.28;2.17;;;;;;;16.59;95.36;98523.78;4137568;28;20943;-53
2023/06/29 05:07:41;;;;;;;2.92;2.20;;;;;;;16.67;95.25;98532.28;4135450;28;20209;-52
2023/06/29 05:09:43;;;;;;;2.88;2.45;;;;;;;16.79;94.45;98531.91;4134226;28;20297;-53
2023/06/29 05:11:44;;;;;;;6.15;2.60;;;;;;;16.70;95.47;98520.66;4149107;28;20221;-52
2023/06/29 05:13:46;;;;;;;2.58;2.33;;;;;;;16.82;93.97;98523.88;4139054;28;20213;-53
2023/06/29 05:15:48;;;;;;;2.50;2.10;;;;;;;16.87;94.27;98531.28;4149212;28;20226;-52
2023/06/29 05:17:52;;;;;;;3.03;2.38;;;;;;;16.65;95.97;98534.53;4138169;28;20209;-53
2023/06/29 05:19:54;;;;;;;1.95;1.80;;;;;;;16.61;97.27;98527.91;4145020;28;20327;-52
2023/06/29 05:21:56;;;;;;;2.20;2.00;;;;;;;16.74;96.61;98523.66;4138439;28;20206;-53
2023/06/29 05:23:58;;;;;;;5.05;2.47;;;;;;;16.85;96.08;98528.84;4135943;28;20262;-53
2023/06/29 05:26:00;;;;;;;4.40;2.30;;;;;;;16.92;95.08;98523.78;4142867;28;20323;-52
2023/06/29 05:28:01;;;;;;;3.65;1.83;;;;;;;17.07;95.00;98520.88;4137012;28;20686;-52
2023/06/29 05:30:04;;;;;;;2.78;1.83;;;;;;;17.18;94.34;98527.97;4149663;28;20274;-52
2023/06/29 05:32:06;;;;;;;3.00;2.35;;;;;;;17.21;94.55;98519.06;4147674;28;20300;-52
2023/06/29 05:34:07;;;;;;;4.72;2.03;;;;;;;17.33;93.95;98519.50;4141725;28;20607;-52
2023/06/29 05:36:09;;;;;;;2.00;1.52;;;;;;;17.52;93.91;98517.66;4132678;28;20264;-52
2023/06/29 05:38:11;;;;;;;2.95;1.92;;;;;;;17.64;93.99;98518.06;4164995;28;20212;-52
2023/06/29 05:40:13;;;;;;;2.22;2.03;;;;;;;17.89;93.06;98523.25;4135260;28;20771;-52
2023/06/29 05:42:15;;;;;;;3.20;1.80;;;;;;;18.16;91.57;98517.91;4140598;28;20308;-52
2023/06/29 05:44:17;;;;;;;2.80;1.73;;;;;;;18.31;90.47;98517.72;4137322;28;20249;-52
2023/06/29 05:46:19;;;;;;;2.15;1.70;;;;;;;18.45;90.39;98515.84;4147014;28;20330;-53
2023/06/29 05:48:20;;;;;;;3.97;1.90;;;;;;;18.71;89.57;98519.88;4136906;28;21016;-52
2023/06/29 05:50:22;;;;;;;2.15;1.60;;;;;;;18.89;88.97;98513.44;4149486;28;20271;-53
2023/06/29 05:52:24;;;;;;;2.55;1.75;;;;;;;19.16;85.94;98510.72;4140246;28;20268;-53
2023/06/29 05:54:26;;;;;;;2.92;2.08;;;;;;;19.12;85.40;98509.72;4132614;28;20221;-52
2023/06/29 05:56:28;;;;;;;2.40;2.20;;;;;;;19.12;84.83;98518.03;4132170;28;20680;-52
2023/06/29 05:58:29;;;;;;;3.10;1.90;;;;;;;19.06;86.10;98510.94;4119637;28;20281;-53
2023/06/29 06:00:31;;;;;;;3.47;2.10;;;;;;;19.47;84.40;98509.06;4162551;28;20255;-52
2023/06/29 06:02:33;;;;;;;2.50;2.15;;;;;;;19.56;83.93;98510.00;4135279;28;20233;-53
2023/06/29 06:04:35;;;;;;;4.13;2.53;;;;;;;19.88;84.61;98510.72;4131136;28;20244;-52
2023/06/29 06:06:39;;;;;;;3.60;2.28;;;;;;;19.93;81.15;98505.06;4129538;28;20256;-52
2023/06/29 06:08:41;;;;;;;4.32;3.45;;;;;;;19.65;82.24;98502.59;4147127;28;20212;-52
2023/06/29 06:10:43;;;;;;;3.28;2.17;;;;;;;19.59;82.49;98503.84;4135886;28;20274;-52
2023/06/29 06:12:45;;;;;;;2.60;1.80;;;;;;;19.64;83.30;98500.97;4131283;28;20652;-53
2023/06/29 06:14:47;;;;;;;2.05;1.85;;;;;;;19.64;83.23;98493.44;4146492;28;20311;-53
2023/06/29 06:16:49;;;;;;;3.42;2.10;;;;;;;19.84;83.35;98501.34;4137326;28;20221;-53
2023/06/29 06:18:53;;;;;;;2.22;2.03;;;;;;;20.05;81.82;98496.19;4132837;28;20652;-52
2023/06/29 06:20:54;;;;;;;2.58;2.00;;;;;;;20.29;82.02;98507.88;4163421;28;20248;-52
2023/06/29 06:22:57;;;;;;;1.85;1.75;;;;;;;20.43;81.05;98500.31;4131333;28;20205;-55
2023/06/29 06:24:59;;;;;;;3.15;1.98;;;;;;;20.33;81.16;98500.56;4148024;28;20204;-52
2023/06/29 06:27:01;;;;;;;5.40;2.22;;;;;;;20.65;80.51;98505.91;4131439;28;20248;-54
2023/06/29 06:29:02;;;;;;;2.88;1.80;;;;;;;20.71;79.75;98505.47;4159546;28;20211;-54
2023/06/29 06:31:05;;;;;;;2.53;1.98;;;;;;;20.74;79.33;98498.47;4145100;28;20208;-54
2023/06/29 06:33:11;;;;;;;3.47;1.73;;;;;;;20.82;79.79;98486.56;4120463;28;20295;-54
2023/06/29 06:35:13;;;;;;;3.88;2.35;;;;;;;20.62;80.13;98492.63;4147776;28;20204;-52
2023/06/29 06:37:14;;;;;;;1.83;1.55;;;;;;;20.84;79.51;98487.88;4148703;28;20209;-52
2023/06/29 06:39:16;;;;;;;2.75;1.55;;;;;;;20.89;79.39;98496.16;4130718;28;20214;-53
2023/06/29 06:41:18;;;;;;;2.45;1.83;;;;;;;20.79;79.89;98501.13;4147895;28;20207;-53
2023/06/29 06:43:20;;;;;;;1.80;1.60;;;;;;;20.96;79.67;98495.69;4130931;28;20666;-52
2023/06/29 06:45:22;;;;;;;2.72;1.70;;;;;;;21.03;79.42;98496.88;4148179;28;20205;-54
2023/06/29 06:47:23;;;;;;;2.83;2.10;;;;;;;21.08;78.88;98495.94;4133313;28;20213;-52
2023/06/29 06:49:25;;;;;;;2.67;1.45;;;;;;;21.14;78.68;98495.50;4151179;28;20235;-54
2023/06/29 06:51:30;;;;;;;3.55;1.75;;;;;;;21.26;78.54;98494.91;4149356;28;20227;-54
2023/06/29 06:53:32;;;;;;;4.82;2.10;;;;;;;21.37;77.95;98496.28;4131450;28;20270;-52
2023/06/29 06:55:33;;;;;;;3.90;1.75;;;;;;;21.43;76.76;98501.38;4135841;28;20220;-55
2023/06/29 06:57:36;;;;;;;3.88;2.13;;;;;;;21.49;76.95;98504.81;4145675;28;20377;-54
2023/06/29 06:59:38;;;;;;;3.33;2.03;;;;;;;21.49;76.73;98499.25;4150822;28;20216;-52
2023/06/29 07:01:41;;;;;;;6.50;1.77;;;;;;;21.50;76.21;98500.94;4135278;28;20231;-52
2023/06/29 07:03:43;;;;;;;1.65;1.40;;;;;;;21.54;76.16;98507.47;4148969;28;20208;-52
2023/06/29 07:05:53;;;;;;;2.08;1.63;;;;;;;21.61;76.68;98505.03;4166172;28;20310;-52
2023/06/29 07:07:59;;;;;;;1.88;1.38;;;;;;;21.68;75.88;98497.91;4166537;28;20204;-51
2023/06/29 07:10:01;;;;;;;2.13;1.40;;;;;;;21.76;76.73;98499.06;4155509;28;20208;-53
2023/06/29 07:12:03;;;;;;;2.22;1.52;;;;;;;21.82;76.01;98497.78;4135789;28;20307;-54
2023/06/29 07:14:05;;;;;;;2.50;1.63;;;;;;;21.79;75.12;98501.22;4149463;28;20296;-52
2023/06/29 07:16:07;;;;;;;9.00;1.80;;;;;;;21.88;75.10;98507.63;4140570;28;20235;-52
2023/06/29 07:18:10;;;;;;;1.77;1.30;;;;;;;21.54;74.51;98507.47;4131517;28;20200;-52
2023/06/29 07:20:14;;;;;;;7.38;1.85;;;;;;;21.70;75.01;98500.38;4132542;28;20275;-53
2023/06/29 07:22:18;;;;;;;3.58;2.13;;;;;;;21.61;74.67;98513.41;4134086;28;20227;-53
2023/06/29 07:24:23;;;;;;;2.30;1.58;;;;;;;21.31;75.15;98503.91;4168635;28;20199;-54
2023/06/29 07:26:26;;;;;;;5.60;1.90;;;;;;;21.34;74.98;98505.25;4134569;28;21185;-54
2023/06/29 07:28:28;;;;;;;3.78;1.45;;;;;;;21.68;74.67;98497.06;4142943;28;20667;-52
2023/06/29 07:30:30;;;;;;;2.22;1.65;;;;;;;21.97;74.70;98497.34;4148576;28;20243;-51
2023/06/29 07:32:32;;;;;;;1.70;1.40;;;;;;;22.13;73.48;98490.16;4135413;28;20321;-51
2023/06/29 07:34:35;;;;;;;2.72;1.55;;;;;;;22.53;74.58;98497.28;4135716;28;20212;-52
2023/06/29 07:36:37;;;;;;;2.58;1.80;;;;;;;22.74;72.55;98492.69;4134880;28;20244;-52
2023/06/29 07:38:39;;;;;;;2.45;1.50;;;;;;;22.85;70.71;98499.56;4141648;28;20295;-51
2023/06/29 07:40:42;;;;;;;1.90;1.63;;;;;;;22.82;70.76;98487.09;4132554;28;20203;-54
2023/06/29 07:42:44;;;;;;;4.57;2.00;;;;;;;22.71;69.24;98493.34;4141446;28;20205;-52
2023/06/29 07:44:46;;;;;;;2.13;1.45;;;;;;;22.84;69.36;98498.75;4135613;28;20582;-54
2023/06/29 07:46:47;;;;;;;2.95;1.40;;;;;;;23.02;69.87;98488.38;4120375;28;20233;-52
2023/06/29 07:48:51;;;;;;;1.70;1.30;;;;;;;23.04;69.60;98491.69;4135246;28;20641;-52
2023/06/29 07:50:54;;;;;;;2.50;1.83;;;;;;;23.09;69.15;98497.06;4136407;28;20652;-51
2023/06/29 07:52:55;;;;;;;3.13;1.70;;;;;;;23.01;68.44;98495.09;4141557;28;20219;-52
2023/06/29 07:54:57;;;;;;;3.22;1.80;;;;;;;23.04;68.57;98494.47;4150215;28;20215;-53
2023/06/29 07:56:59;;;;;;;2.63;1.98;;;;;;;23.19;68.13;98500.38;4139864;28;20232;-52
2023/06/29 07:59:04;;;;;;;6.53;1.52;;;;;;;23.58;66.22;98490.88;4135338;28;20603;-55
2023/06/29 08:01:06;;;;;;;1.90;1.55;;;;;;;24.20;65.98;98487.94;4140766;28;20205;-51
2023/06/29 08:03:09;;;;;;;1.65;1.30;;;;;;;24.50;64.54;98492.34;4149415;28;20586;-52
2023/06/29 08:05:18;;;;;;;3.55;3.20;;;;;;;24.58;62.72;98488.69;4137974;28;20216;-54
2023/06/29 08:07:22;;;;;;;2.05;1.48;;;;;;;24.66;63.76;98484.97;4131937;28;20204;-53
2023/06/29 08:09:24;;;;;;;4.07;1.30;;;;;;;24.52;61.16;98484.41;4147785;28;20212;-51
2023/06/29 08:11:27;;;;;;;2.22;1.40;;;;;;;24.28;61.51;98481.47;4146606;28;20303;-53
2023/06/29 08:13:29;;;;;;;1.92;1.30;;;;;;;24.02;62.63;98480.00;4162532;28;20372;-51
2023/06/29 08:15:31;;;;;;;4.15;1.02;;;;;;;23.87;62.86;98471.38;4133048;28;20228;-52
2023/06/29 08:17:33;;;;;;;3.85;1.70;;;;;;;23.87;63.56;98469.41;4134562;28;20730;-51
2023/06/29 08:19:35;;;;;;;3.30;1.15;;;;;;;23.84;63.61;98475.63;4135187;28;20220;-52
2023/06/29 08:21:36;;;;;;;3.47;1.38;;;;;;;23.91;61.37;98477.94;4136172;28;20240;-51
2023/06/29 08:23:38;;;;;;;1.88;1.58;;;;;;;23.71;64.08;98473.06;4131603;28;20732;-51
2023/06/29 08:25:40;;;;;;;4.43;1.40;;;;;;;23.65;62.86;98477.22;4134119;28;20314;-51
2023/06/29 08:27:42;;;;;;;2.35;1.60;;;;;;;23.32;62.80;98476.19;4149253;28;20209;-51
2023/06/29 08:29:44;;;;;;;3.45;1.73;;;;;;;23.60;62.96;98488.56;4137331;28;20256;-51
2023/06/29 08:31:45;;;;;;;11.35;1.52;;;;;;;23.31;62.62;98485.72;4164049;28;20227;-51
2023/06/29 08:33:49;;;;;;;2.33;1.20;;;;;;;23.24;62.50;98479.84;4136166;28;20221;-51
2023/06/29 08:35:51;;;;;;;1.42;1.33;;;;;;;23.35;61.37;98481.91;4135208;28;20233;-51
2023/06/29 08:37:54;;;;;;;2.40;1.15;;;;;;;22.95;62.26;98479.69;4137863;28;20256;-52
2023/06/29 08:39:56;;;;;;;4.35;1.52;;;;;;;22.99;62.15;98483.47;4139674;28;20206;-52
2023/06/29 08:41:58;;;;;;;3.97;1.67;;;;;;;23.04;61.13;98483.28;4153512;28;20231;-53
2023/06/29 08:44:06;;;;;;;2.83;1.30;;;;;;;23.28;62.51;98476.03;4138667;28;20205;-50
2023/06/29 08:46:08;;;;;;;4.82;1.65;;;;;;;23.52;62.09;98469.88;4137247;28;20749;-51
2023/06/29 08:48:12;;;;;;;2.33;1.40;;;;;;;23.66;60.75;98464.88;4139818;28;20259;-51
2023/06/29 08:50:14;;;;;;;3.22;1.35;;;;;;;23.73;61.07;98466.00;4144110;28;20291;-53
2023/06/29 08:52:17;;;;;;;3.78;1.45;;;;;;;23.81;60.44;98467.91;4136898;28;20272;-50
2023/06/29 08:54:19;;;;;;;6.82;1.27;;;;;;;24.00;60.48;98465.53;4149993;28;20243;-53
2023/06/29 08:56:23;;;;;;;2.13;1.30;;;;;;;24.16;60.07;98470.22;4136885;28;20257;-52
2023/06/29 08:58:25;;;;;;;1.95;1.40;;;;;;;24.40;59.12;98470.34;4168120;28;20207;-53
2023/06/29 09:00:27;;;;;;;1.70;1.50;;;;;;;24.11;57.79;98462.00;4138237;28;20574;-52
2023/06/29 09:02:30;;;;;;;7.93;1.98;;;;;;;24.00;58.46;98460.75;4151084;28;20210;-52
2023/06/29 09:04:32;;;;;;;6.40;1.60;;;;;;;24.22;58.96;98468.84;4137208;28;20615;-52
2023/06/29 09:06:34;;;;;;;2.58;1.38;;;;;;;24.42;57.58;98468.03;4138469;28;20251;-50
2023/06/29 09:08:38;;;;;;;2.10;1.45;;;;;;;24.21;58.39;98461.59;4138616;28;20747;-53
2023/06/29 09:10:46;;;;;;;2.00;1.23;;;;;;;24.14;58.39;98455.72;4165953;28;20701;-53
2023/06/29 09:12:51;;;;;;;3.13;1.50;;;;;;;24.51;58.17;98462.34;4153936;28;20212;-53
2023/06/29 09:14:53;;;;;;;2.28;1.25;;;;;;;24.85;58.41;98465.72;4168429;28;20215;-52
2023/06/29 09:17:01;;;;;;;1.55;1.10;;;;;;;25.25;57.12;98458.41;4138535;28;20735;-51
2023/06/29 09:19:03;;;;;;;2.67;1.60;;;;;;;25.04;55.98;98462.38;4169967;28;20207;-51
2023/06/29 09:21:05;;;;;;;2.38;1.45;;;;;;;25.38;55.93;98462.88;4144472;28;20215;-51
2023/06/29 09:23:07;;;;;;;2.08;1.23;;;;;;;25.04;55.10;98460.41;4146203;28;20201;-52
2023/06/29 09:25:13;;;;;;;1.63;1.40;;;;;;;24.58;55.45;98455.09;4162236;28;20208;-53
2023/06/29 09:27:36;;;;;;;4.85;1.83;;;;;;;24.38;55.29;98455.88;4145569;28;20242;-51
2023/06/29 09:29:38;;;;;;;3.25;1.48;;;;;;;24.66;56.25;98459.78;4140897;28;20217;-51
2023/06/29 09:31:53;;;;;;;3.92;1.80;;;;;;;24.42;54.94;98462.44;4142717;28;20275;-53
2023/06/29 09:33:55;;;;;;;3.55;3.17;;;;;;;24.54;55.16;98454.09;4131367;28;20272;-51
2023/06/29 09:36:06;;;;;;;2.00;1.65;;;;;;;24.87;56.78;98460.56;4136494;28;20239;-51
2023/06/29 09:38:10;;;;;;;3.72;1.15;;;;;;;25.52;54.86;98446.53;4138871;28;20415;-52